Time;durP1;ratioP1;P1;durP2;ratioP2;P2;SDS_P1;SDS_P2;PMS_P1;PMS_P2;Temp;Humidity;BMP_temperature;BMP_pressure;BME280_temperature;BME280_humidity;BME280_pressure;Samples;Min_cycle;Max_cycle;Signal;HPM_P1;HPM_P2
2021/10/25 00:00:35;;;;;;;5.53;2.13;;;;;;;15.91;44.98;101755.66;4958199;29;20086;-60
2021/10/25 00:03:01;;;;;;;5.32;2.38;;;;;;;15.94;44.60;101752.69;4957673;29;20031;-60
2021/10/25 00:05:27;;;;;;;9.57;2.40;;;;;;;15.98;44.13;101748.69;4940669;29;20089;-60
2021/10/25 00:07:53;;;;;;;3.78;2.25;;;;;;;15.99;43.84;101755.81;4940693;29;20031;-60
2021/10/25 00:10:19;;;;;;;4.40;2.08;;;;;;;16.01;43.76;101753.81;4940616;29;20071;-60
2021/10/25 00:12:44;;;;;;;4.53;2.05;;;;;;;16.04;44.33;101753.53;4957910;29;20106;-60
2021/10/25 00:15:11;;;;;;;4.68;2.20;;;;;;;16.04;44.58;101749.00;4924931;29;20038;-60
2021/10/25 00:17:37;;;;;;;7.18;2.10;;;;;;;16.04;44.79;101742.72;4940379;29;20105;-60
2021/10/25 00:20:07;;;;;;;4.07;2.65;;;;;;;16.07;44.80;101742.44;4940273;29;20063;-60
2021/10/25 00:22:32;;;;;;;11.27;2.70;;;;;;;16.08;44.78;101744.16;4940175;29;20058;-60
2021/10/25 00:24:57;;;;;;;2.97;1.73;;;;;;;16.08;43.41;101739.59;4957367;29;20607;-60
2021/10/25 00:27:23;;;;;;;7.90;2.72;;;;;;;16.07;43.83;101732.50;4940171;29;20019;-60
2021/10/25 00:29:49;;;;;;;7.43;2.58;;;;;;;16.09;44.46;101735.91;4940350;29;20023;-60
2021/10/25 00:32:14;;;;;;;5.47;2.40;;;;;;;16.07;44.09;101729.78;4957321;29;20064;-60
2021/10/25 00:34:40;;;;;;;4.05;2.35;;;;;;;16.12;44.27;101723.94;4956882;29;20075;-60
2021/10/25 00:37:05;;;;;;;2.55;2.15;;;;;;;16.11;43.73;101727.63;4957219;29;20114;-60
2021/10/25 00:39:31;;;;;;;7.50;2.42;;;;;;;16.11;44.17;101733.91;4957199;29;20382;-60
2021/10/25 00:41:57;;;;;;;6.63;2.10;;;;;;;16.13;45.18;101731.06;4957337;28;20039;-60
2021/10/25 00:44:24;;;;;;;3.30;2.28;;;;;;;16.12;44.26;101727.50;4957072;29;20031;-60
2021/10/25 00:46:50;;;;;;;2.15;1.83;;;;;;;16.10;43.89;101720.53;4924028;29;20396;-60
2021/10/25 00:49:15;;;;;;;3.67;2.30;;;;;;;16.09;43.76;101722.38;4939916;29;20086;-60
2021/10/25 00:51:40;;;;;;;4.90;2.20;;;;;;;16.09;44.94;101721.53;4956008;28;20094;-60
2021/10/25 00:54:06;;;;;;;4.90;2.50;;;;;;;16.07;43.73;101723.53;4956644;29;20035;-60
2021/10/25 00:56:33;;;;;;;5.15;2.40;;;;;;;16.05;43.63;101720.94;4939414;29;20031;-60
2021/10/25 00:58:58;;;;;;;6.53;2.45;;;;;;;16.08;44.52;101719.84;4939794;29;20027;-60
2021/10/25 01:01:23;;;;;;;2.92;1.95;;;;;;;16.01;44.43;101707.88;4956604;29;20039;-60
2021/10/25 01:03:49;;;;;;;5.80;2.53;;;;;;;16.07;45.01;101720.81;4956831;29;20027;-60
2021/10/25 01:06:15;;;;;;;6.80;2.28;;;;;;;16.07;44.48;101726.22;4940954;29;20028;-60
2021/10/25 01:08:40;;;;;;;11.65;2.72;;;;;;;16.08;45.35;101727.94;4952067;29;20032;-60
2021/10/25 01:11:07;;;;;;;3.55;2.40;;;;;;;16.11;45.37;101722.22;4937876;29;20039;-60
2021/10/25 01:13:33;;;;;;;6.88;1.90;;;;;;;16.11;44.72;101724.94;4923789;29;20028;-61
2021/10/25 01:15:59;;;;;;;5.15;2.10;;;;;;;16.17;44.34;101727.06;4952101;29;20027;-61
2021/10/25 01:18:24;;;;;;;6.72;2.25;;;;;;;16.19;43.80;101725.09;4937041;29;20528;-61
2021/10/25 01:20:49;;;;;;;3.08;2.03;;;;;;;16.22;45.18;101722.06;4904135;29;20039;-61
2021/10/25 01:23:15;;;;;;;4.03;2.00;;;;;;;16.22;45.52;101719.38;4937089;29;20031;-61
2021/10/25 01:25:40;;;;;;;4.25;2.15;;;;;;;16.25;44.07;101729.91;4935800;29;20087;-61
2021/10/25 01:28:06;;;;;;;5.45;2.20;;;;;;;16.25;44.04;101711.84;4951863;29;20477;-61
2021/10/25 01:30:31;;;;;;;2.95;1.90;;;;;;;16.26;45.34;101710.00;4953432;28;20086;-61
2021/10/25 01:32:57;;;;;;;4.88;2.60;;;;;;;16.24;44.69;101704.75;4956049;29;20485;-60
2021/10/25 01:35:22;;;;;;;3.20;2.10;;;;;;;16.29;44.83;101707.00;4938727;29;20035;-61
2021/10/25 01:37:48;;;;;;;3.78;2.15;;;;;;;16.29;44.14;101707.00;4938713;29;20042;-61
2021/10/25 01:40:13;;;;;;;5.05;2.35;;;;;;;16.28;44.71;101703.44;4956348;29;20035;-61
2021/10/25 01:42:39;;;;;;;5.90;2.08;;;;;;;16.28;44.77;101697.16;4939050;29;20086;-61
2021/10/25 01:45:06;;;;;;;4.07;2.10;;;;;;;16.30;45.51;101706.00;4938708;29;20125;-60
2021/10/25 01:47:31;;;;;;;4.35;2.38;;;;;;;16.28;44.53;101697.16;4939343;29;20148;-61
2021/10/25 01:49:57;;;;;;;6.43;2.20;;;;;;;16.33;44.56;101705.72;4922964;29;20058;-60
2021/10/25 01:52:23;;;;;;;5.82;2.10;;;;;;;16.33;45.46;101700.31;4955866;29;20055;-61
2021/10/25 01:54:48;;;;;;;5.32;2.17;;;;;;;16.34;45.19;101702.00;4938543;29;20035;-60
2021/10/25 01:57:14;;;;;;;3.70;1.80;;;;;;;16.28;44.05;101691.75;4938759;29;20035;-60
2021/10/25 01:59:40;;;;;;;4.15;1.85;;;;;;;16.35;43.96;101709.13;4923003;29;20475;-60
2021/10/25 02:02:05;;;;;;;5.72;2.05;;;;;;;16.31;45.26;101699.59;4938699;29;20028;-61
2021/10/25 02:04:31;;;;;;;3.20;1.80;;;;;;;16.36;45.46;101702.69;4944625;29;20031;-60
2021/10/25 02:06:57;;;;;;;6.65;2.00;;;;;;;16.38;45.61;101707.97;4944882;29;20166;-61
2021/10/25 02:09:22;;;;;;;4.32;2.10;;;;;;;16.37;43.94;101706.25;4962020;29;20035;-61
2021/10/25 02:11:47;;;;;;;3.92;2.00;;;;;;;16.36;45.12;101700.00;4962270;28;20036;-61
2021/10/25 02:14:14;;;;;;;3.47;1.80;;;;;;;16.36;45.36;101700.00;4944987;29;20031;-61
2021/10/25 02:16:39;;;;;;;3.92;1.63;;;;;;;16.36;43.93;101693.75;4928971;29;20062;-61
2021/10/25 02:19:05;;;;;;;4.75;1.92;;;;;;;16.35;44.70;101692.03;4961869;28;20023;-61
2021/10/25 02:21:31;;;;;;;6.35;2.83;;;;;;;16.33;44.08;101695.72;4962044;29;20543;-60
2021/10/25 02:23:56;;;;;;;6.80;2.65;;;;;;;16.32;44.51;101690.50;4962233;29;20030;-61
2021/10/25 02:26:22;;;;;;;3.10;1.85;;;;;;;16.30;44.80;101681.69;4962067;29;20473;-60
2021/10/25 02:28:47;;;;;;;5.30;2.20;;;;;;;16.30;45.32;101678.97;4929079;29;20039;-61
2021/10/25 02:31:13;;;;;;;7.38;1.73;;;;;;;16.29;44.03;101685.38;4961459;28;20054;-61
2021/10/25 02:33:39;;;;;;;3.22;1.73;;;;;;;16.27;45.00;101679.25;4944838;29;20035;-60
2021/10/25 02:36:06;;;;;;;3.92;1.60;;;;;;;16.26;43.93;101674.84;4961727;28;20035;-61
2021/10/25 02:38:33;;;;;;;2.67;1.48;;;;;;;16.23;45.45;101669.72;4945065;29;20027;-60
2021/10/25 02:40:59;;;;;;;4.75;2.00;;;;;;;16.23;44.44;101672.41;4962100;29;20059;-60
2021/10/25 02:43:24;;;;;;;3.10;1.90;;;;;;;16.23;43.88;101664.31;4944518;29;20058;-61
2021/10/25 02:45:50;;;;;;;4.18;1.80;;;;;;;16.21;43.85;101664.47;4961462;29;20035;-60
2021/10/25 02:48:15;;;;;;;4.10;1.98;;;;;;;16.19;45.52;101660.22;4961910;28;20034;-60
2021/10/25 02:50:41;;;;;;;4.50;1.90;;;;;;;16.17;44.51;101657.63;4961625;28;20019;-60
2021/10/25 02:53:09;;;;;;;1.85;1.60;;;;;;;16.16;45.56;101655.09;4961720;29;20053;-61
2021/10/25 02:55:35;;;;;;;4.68;2.10;;;;;;;16.17;44.91;101662.19;4944338;29;20031;-61
2021/10/25 02:58:01;;;;;;;4.00;2.30;;;;;;;16.19;45.39;101660.22;4961759;29;20547;-61
2021/10/25 03:00:27;;;;;;;3.45;1.35;;;;;;;16.17;44.11;101652.22;4961569;29;20043;-60
2021/10/25 03:02:52;;;;;;;3.03;1.48;;;;;;;16.17;44.66;101651.38;4961854;29;20079;-61
2021/10/25 03:05:17;;;;;;;6.13;2.15;;;;;;;16.16;45.07;101655.09;4961474;29;20063;-60
2021/10/25 03:07:43;;;;;;;3.88;1.60;;;;;;;16.16;44.68;101644.28;4961546;29;20031;-61
2021/10/25 03:10:09;;;;;;;5.35;1.83;;;;;;;16.12;44.66;101635.59;4961749;28;20496;-61
2021/10/25 03:12:35;;;;;;;7.18;2.33;;;;;;;16.16;44.49;101638.88;4961533;28;20069;-61
2021/10/25 03:15:00;;;;;;;3.03;1.77;;;;;;;16.19;45.86;101635.88;4942047;29;20023;-60
2021/10/25 03:17:25;;;;;;;5.70;2.28;;;;;;;16.21;45.85;101636.59;4958640;29;20035;-61
2021/10/25 03:19:51;;;;;;;3.80;1.75;;;;;;;16.20;44.17;101634.88;4958366;29;20035;-61
2021/10/25 03:22:16;;;;;;;2.60;1.73;;;;;;;16.22;44.37;101640.97;4940937;29;20103;-61
2021/10/25 03:24:43;;;;;;;4.72;2.28;;;;;;;16.24;44.47;101639.00;4958373;29;20383;-60
2021/10/25 03:27:09;;;;;;;3.97;2.10;;;;;;;16.25;45.07;101637.97;4957834;29;20042;-61
2021/10/25 03:29:34;;;;;;;7.80;2.08;;;;;;;16.26;44.24;101639.69;4958275;29;20473;-61
2021/10/25 03:32:00;;;;;;;4.60;2.20;;;;;;;16.25;44.23;101628.03;4958090;29;20027;-61
2021/10/25 03:34:27;;;;;;;3.20;1.83;;;;;;;16.25;45.04;101637.97;4958133;29;20506;-61
2021/10/25 03:36:53;;;;;;;4.25;1.90;;;;;;;16.25;45.97;101633.44;4958455;29;20109;-61
2021/10/25 03:39:22;;;;;;;7.25;2.30;;;;;;;16.27;44.88;101630.59;4958413;29;20431;-60
2021/10/25 03:41:49;;;;;;;5.65;2.08;;;;;;;16.21;45.23;101615.81;4957977;29;20039;-60
2021/10/25 03:44:32;;;;;;;5.22;2.00;;;;;;;16.26;45.23;101621.63;4957774;29;20035;-60
2021/10/25 03:51:48;;;;;;;3.00;1.95;;;;;;;16.30;44.55;101611.38;4942768;29;20051;-60
2021/10/25 04:28:58;;;;;;;5.90;2.05;;;;;;;15.88;44.15;101623.56;4938325;29;20115;-60
2021/10/25 04:31:24;;;;;;;7.43;2.15;;;;;;;15.84;44.93;101622.13;4947853;29;20066;-61
2021/10/25 04:33:49;;;;;;;4.18;1.95;;;;;;;15.82;45.62;101624.13;4956442;29;20031;-61
2021/10/25 04:36:15;;;;;;;7.00;2.17;;;;;;;15.79;44.09;101619.00;4956949;28;20110;-61
2021/10/25 04:38:40;;;;;;;4.45;2.35;;;;;;;15.78;45.20;101617.28;4956965;28;20090;-61
2021/10/25 04:41:06;;;;;;;5.28;2.20;;;;;;;15.74;45.68;101617.56;4955871;28;20547;-60
2021/10/25 04:43:32;;;;;;;4.90;2.15;;;;;;;15.76;44.38;101613.88;4956945;29;20078;-61
2021/10/25 04:45:57;;;;;;;10.90;2.35;;;;;;;15.71;44.93;101611.63;4957271;28;20130;-60
2021/10/25 04:48:23;;;;;;;4.07;2.13;;;;;;;15.71;45.11;101612.47;4939949;29;20118;-60
2021/10/25 04:50:49;;;;;;;2.25;1.60;;;;;;;15.76;44.76;101617.44;4923585;29;20030;-61
2021/10/25 04:53:14;;;;;;;4.18;1.90;;;;;;;15.76;46.31;101614.75;4956663;28;20464;-60
2021/10/25 04:55:40;;;;;;;4.30;2.30;;;;;;;15.76;45.64;101613.88;4956391;29;20031;-61
2021/10/25 04:58:05;;;;;;;3.25;1.75;;;;;;;15.80;46.35;101615.31;4939669;29;20032;-61
2021/10/25 05:00:30;;;;;;;5.18;1.60;;;;;;;15.83;46.32;101615.03;4939289;29;20069;-60
2021/10/25 05:02:58;;;;;;;3.53;1.70;;;;;;;15.88;44.63;101618.16;4956655;29;20043;-60
2021/10/25 05:05:24;;;;;;;5.05;1.92;;;;;;;15.91;45.39;101609.75;4956538;29;20130;-60
2021/10/25 05:07:49;;;;;;;5.22;2.08;;;;;;;15.92;46.07;101608.75;4939846;29;20536;-61
2021/10/25 05:10:15;;;;;;;3.10;1.70;;;;;;;15.94;45.94;101612.16;4939266;29;20095;-61
2021/10/25 05:12:40;;;;;;;2.53;1.38;;;;;;;15.95;45.49;101606.59;4956604;29;20035;-61
2021/10/25 05:15:06;;;;;;;4.68;1.90;;;;;;;16.01;44.97;101610.56;4956295;29;20424;-60
2021/10/25 05:17:31;;;;;;;4.38;2.10;;;;;;;16.03;45.03;101597.75;4956560;29;20031;-61
2021/10/25 05:19:57;;;;;;;6.55;2.22;;;;;;;16.07;44.96;101604.59;4956468;29;20086;-61
2021/10/25 05:22:23;;;;;;;2.28;1.83;;;;;;;16.08;44.89;101598.22;4956238;29;20027;-61
2021/10/25 05:24:49;;;;;;;6.15;1.80;;;;;;;16.11;44.99;101603.28;4956375;29;20074;-61
2021/10/25 05:27:16;;;;;;;6.28;2.25;;;;;;;16.12;46.12;101597.75;4956245;29;20101;-61
2021/10/25 05:29:41;;;;;;;7.22;2.08;;;;;;;16.12;46.08;101599.59;4938910;29;20078;-60
2021/10/25 05:32:07;;;;;;;5.80;2.33;;;;;;;16.15;46.08;101593.91;4938913;29;20063;-60
2021/10/25 05:34:33;;;;;;;3.95;1.73;;;;;;;16.16;44.89;101590.22;4956084;29;20472;-60
2021/10/25 05:36:59;;;;;;;4.43;1.63;;;;;;;16.16;45.02;101591.03;4939090;28;20392;-60
2021/10/25 05:39:24;;;;;;;5.97;2.33;;;;;;;16.18;46.54;101582.81;4956049;29;20034;-61
2021/10/25 05:41:50;;;;;;;7.30;1.98;;;;;;;16.21;46.13;101590.63;4938995;29;20487;-61
2021/10/25 05:44:16;;;;;;;4.38;2.25;;;;;;;16.22;46.51;101587.75;4955885;29;20037;-60
2021/10/25 05:46:41;;;;;;;3.95;1.85;;;;;;;16.25;45.75;101589.31;4955752;29;20427;-60
2021/10/25 05:49:07;;;;;;;1.92;1.42;;;;;;;16.27;44.82;101592.75;4955673;29;20031;-59
2021/10/25 05:51:32;;;;;;;4.35;1.88;;;;;;;16.31;44.89;101594.13;4955437;28;20535;-60
2021/10/25 05:54:02;;;;;;;1.83;1.40;;;;;;;16.31;46.14;101589.59;4955624;29;20031;-60
2021/10/25 05:56:28;;;;;;;3.38;1.40;;;;;;;16.33;44.88;101583.19;4939168;29;20027;-60
2021/10/25 05:58:53;;;;;;;5.13;1.83;;;;;;;16.32;44.56;101574.22;4955905;29;20035;-60
2021/10/25 06:01:21;;;;;;;6.25;1.77;;;;;;;16.30;44.33;101578.94;4955697;29;20469;-60
2021/10/25 06:03:48;;;;;;;2.35;1.60;;;;;;;16.32;45.47;101582.34;4956270;29;20031;-60
2021/10/25 06:06:14;;;;;;;5.10;1.38;;;;;;;16.35;44.89;101573.06;4938726;29;20023;-60
2021/10/25 06:08:40;;;;;;;2.55;1.60;;;;;;;16.34;46.13;101583.03;4939191;29;20392;-60
2021/10/25 06:11:07;;;;;;;3.22;1.65;;;;;;;16.28;44.96;101562.84;4955905;29;20567;-61
2021/10/25 06:13:43;;;;;;;3.40;2.65;;;;;;;16.33;46.18;101570.53;4955907;29;20035;-60
2021/10/25 06:16:12;;;;;;;3.15;1.42;;;;;;;16.33;45.54;101575.94;4955728;29;20038;-60
2021/10/25 06:18:38;;;;;;;6.75;2.00;;;;;;;16.33;44.45;101581.34;4938181;29;20019;-60
2021/10/25 06:21:03;;;;;;;3.10;1.67;;;;;;;16.33;46.03;101573.22;4955382;29;20154;-60
2021/10/25 06:23:29;;;;;;;3.92;1.33;;;;;;;16.35;44.36;101573.94;4955217;29;20388;-60
2021/10/25 06:25:55;;;;;;;5.32;1.80;;;;;;;16.32;45.03;101579.63;4955546;29;20031;-60
2021/10/25 06:28:25;;;;;;;4.45;1.67;;;;;;;16.37;45.86;101581.88;4955653;29;20027;-60
2021/10/25 06:30:57;;;;;;;2.28;1.50;;;;;;;16.38;45.03;101589.00;4955786;29;20143;-60
2021/10/25 06:33:23;;;;;;;4.13;1.45;;;;;;;16.42;44.72;101591.25;4939508;29;20024;-60
2021/10/25 06:36:01;;;;;;;2.45;1.40;;;;;;;16.44;45.46;101580.31;4955341;29;20570;-60
2021/10/25 06:38:31;;;;;;;1.98;1.35;;;;;;;16.46;44.54;101587.25;4955404;29;20023;-60
2021/10/25 06:40:56;;;;;;;3.97;1.58;;;;;;;16.54;44.08;101595.50;4955403;29;20046;-60
2021/10/25 06:43:22;;;;;;;2.20;1.50;;;;;;;16.59;45.73;101593.22;4955336;29;20023;-60
2021/10/25 06:45:49;;;;;;;3.83;1.83;;;;;;;16.65;44.35;101600.72;4955072;29;20112;-60
2021/10/25 06:48:15;;;;;;;4.22;1.90;;;;;;;16.72;45.14;101598.28;4955098;29;20039;-60
2021/10/25 06:50:40;;;;;;;5.55;1.60;;;;;;;16.82;44.23;101599.94;4957207;28;20059;-60
2021/10/25 06:53:07;;;;;;;4.50;2.00;;;;;;;16.93;44.96;101606.13;4958645;29;20066;-60
2021/10/25 06:55:34;;;;;;;2.95;1.50;;;;;;;17.01;43.99;101595.41;4958921;29;20399;-60
2021/10/25 06:58:00;;;;;;;2.78;1.80;;;;;;;17.10;43.76;101594.50;4958925;29;20110;-60
2021/10/25 07:00:26;;;;;;;3.10;1.45;;;;;;;17.22;44.58;101601.41;4958612;29;20065;-60
2021/10/25 07:02:51;;;;;;;4.18;1.45;;;;;;;17.34;44.90;101602.88;4958548;29;20039;-60
2021/10/25 07:05:17;;;;;;;2.20;1.63;;;;;;;17.48;44.88;101603.19;4958519;29;20536;-60
2021/10/25 07:07:43;;;;;;;5.82;2.00;;;;;;;17.59;44.05;101604.84;4942033;29;20514;-60
2021/10/25 07:10:09;;;;;;;3.88;1.83;;;;;;;17.75;43.79;101605.00;4958877;29;20527;-60
2021/10/25 07:12:35;;;;;;;3.00;1.60;;;;;;;17.91;43.93;101609.69;4958791;29;20035;-60
2021/10/25 07:15:01;;;;;;;3.70;1.58;;;;;;;18.05;42.96;101601.00;4959662;29;20395;-60
2021/10/25 07:17:52;;;;;;;2.83;1.42;;;;;;;18.19;44.00;101602.25;4944862;29;20031;-61
2021/10/25 08:12:17;;;;;;;3.90;1.52;;;;;;;18.49;42.48;101632.50;4938041;29;20039;-60
2021/10/25 08:15:03;;;;;;;7.40;1.77;;;;;;;18.56;43.50;101635.44;4938147;29;20038;-60
2021/10/25 08:17:44;;;;;;;2.53;1.10;;;;;;;18.60;43.04;101628.66;4938504;29;20091;-60
2021/10/25 08:20:10;;;;;;;2.38;1.25;;;;;;;18.64;42.14;101630.03;4938094;29;20127;-60
2021/10/25 08:22:38;;;;;;;2.53;1.23;;;;;;;18.66;42.35;101638.88;4938054;29;20114;-60
2021/10/25 08:25:04;;;;;;;3.03;1.60;;;;;;;18.68;42.05;101634.13;4938271;29;20047;-60
2021/10/25 08:27:30;;;;;;;8.00;1.67;;;;;;;18.75;42.10;101643.34;4964974;28;20127;-60
2021/10/25 08:29:55;;;;;;;5.47;1.40;;;;;;;18.80;42.87;101640.13;4976648;28;20460;-60
2021/10/25 08:32:43;;;;;;;2.67;1.60;;;;;;;18.85;42.44;101633.19;4976538;28;20113;-60
2021/10/25 08:40:27;;;;;;;2.95;1.73;;;;;;;18.98;42.05;101630.84;4976449;28;20327;-60
2021/10/25 08:42:53;;;;;;;4.53;2.78;;;;;;;19.01;42.73;101633.25;4976119;28;20038;-60
2021/10/25 08:45:22;;;;;;;4.00;1.90;;;;;;;19.09;42.02;101630.59;4976195;28;20026;-60
2021/10/25 08:47:49;;;;;;;5.82;2.00;;;;;;;19.13;42.65;101625.66;4976673;28;20035;-61
2021/10/25 08:50:17;;;;;;;3.83;1.58;;;;;;;19.23;42.63;101630.97;4960953;28;20034;-60
2021/10/25 08:52:42;;;;;;;3.63;1.45;;;;;;;19.31;42.13;101628.25;4956660;28;20412;-60
2021/10/25 08:55:10;;;;;;;4.65;1.75;;;;;;;19.40;42.04;101627.31;4956811;29;20034;-60
2021/10/25 08:57:37;;;;;;;4.13;1.42;;;;;;;19.48;41.89;101619.16;4956743;29;20032;-60
2021/10/25 09:00:09;;;;;;;2.28;1.15;;;;;;;19.57;41.95;101615.44;4939419;29;20397;-60
2021/10/25 09:02:35;;;;;;;4.07;1.70;;;;;;;19.57;42.14;101608.09;4956807;29;20023;-60
2021/10/25 09:05:12;;;;;;;3.47;1.40;;;;;;;19.63;41.94;101617.47;4956746;29;20031;-60
2021/10/25 09:07:48;;;;;;;2.92;1.25;;;;;;;19.61;41.75;101609.50;4956329;29;20023;-60
2021/10/25 09:10:41;;;;;;;7.15;1.92;;;;;;;19.65;41.95;101605.41;4956672;29;20031;-60
2021/10/25 09:13:16;;;;;;;3.03;1.45;;;;;;;19.79;41.90;101608.47;4938462;29;20039;-60
2021/10/25 09:15:43;;;;;;;4.97;1.85;;;;;;;19.93;41.89;101611.38;4956281;29;20030;-60
2021/10/25 09:18:11;;;;;;;3.03;1.55;;;;;;;20.03;41.10;101608.47;4961606;28;20030;-60
2021/10/25 09:20:50;;;;;;;3.60;2.05;;;;;;;20.07;41.58;101610.66;4959179;28;20539;-60
2021/10/25 09:23:19;;;;;;;3.03;1.50;;;;;;;20.14;41.18;101600.81;4956483;29;20504;-60
2021/10/25 09:25:57;;;;;;;4.30;1.75;;;;;;;20.23;41.42;101607.94;4956039;29;20058;-60
2021/10/25 09:28:27;;;;;;;8.27;1.85;;;;;;;20.35;41.76;101591.28;4956678;29;20059;-60
2021/10/25 09:30:56;;;;;;;2.67;1.77;;;;;;;20.62;41.37;101602.59;4956358;29;20183;-60
2021/10/25 09:33:23;;;;;;;7.28;2.72;;;;;;;20.94;40.68;101593.41;4956115;29;20023;-60
2021/10/25 09:36:01;;;;;;;4.03;1.40;;;;;;;21.07;40.73;101595.56;4938397;29;20043;-60
2021/10/25 09:41:47;;;;;;;4.32;1.40;;;;;;;21.10;41.46;101590.66;4956063;28;20040;-60
2021/10/25 09:49:51;;;;;;;10.80;1.90;;;;;;;21.18;40.49;101590.59;4975012;28;20081;-60
2021/10/25 09:52:17;;;;;;;3.00;1.48;;;;;;;21.17;41.40;101599.81;4962900;28;20057;-60
2021/10/25 09:54:43;;;;;;;2.97;1.70;;;;;;;21.13;40.99;101598.47;4973706;28;20031;-60
2021/10/25 09:57:13;;;;;;;3.97;1.63;;;;;;;21.07;41.32;101592.84;4955897;28;20448;-60
2021/10/25 09:59:49;;;;;;;2.22;1.63;;;;;;;20.90;41.38;101592.94;4955521;29;20404;-60
2021/10/25 10:02:15;;;;;;;6.95;1.50;;;;;;;20.83;40.48;101596.53;4954395;29;20082;-60
2021/10/25 10:04:42;;;;;;;6.80;1.52;;;;;;;20.76;40.95;101601.84;4955872;28;20500;-60
2021/10/25 10:07:12;;;;;;;3.63;1.60;;;;;;;20.72;41.29;101602.38;4954924;29;20050;-60
2021/10/25 10:09:41;;;;;;;3.42;1.55;;;;;;;20.65;40.68;101607.69;4955756;28;20035;-60
2021/10/25 10:12:07;;;;;;;7.43;1.83;;;;;;;20.55;41.31;101595.28;4955985;28;20491;-60
2021/10/25 10:14:33;;;;;;;3.00;1.95;;;;;;;20.51;41.22;101597.53;4956621;28;20110;-60
2021/10/25 10:17:01;;;;;;;5.95;2.55;;;;;;;20.49;40.92;101594.09;4955789;28;20035;-60
2021/10/25 10:19:27;;;;;;;2.30;1.38;;;;;;;20.47;41.11;101596.16;4954645;29;20050;-59
2021/10/25 10:21:55;;;;;;;4.65;1.85;;;;;;;20.43;41.33;101599.41;4954476;29;20031;-60
2021/10/25 10:24:29;;;;;;;2.08;1.38;;;;;;;20.38;41.32;101597.19;4956339;28;20027;-60
2021/10/25 10:26:59;;;;;;;5.13;1.70;;;;;;;20.38;41.40;101599.09;4959690;28;20034;-60
2021/10/25 10:29:25;;;;;;;4.00;1.42;;;;;;;20.35;41.23;101596.72;4958047;29;20030;-60
2021/10/25 10:31:58;;;;;;;4.35;1.60;;;;;;;20.31;41.13;101586.19;4959298;28;20023;-60
2021/10/25 10:34:24;;;;;;;1.92;1.25;;;;;;;20.22;41.11;101576.28;4959212;28;20029;-60
2021/10/25 10:36:59;;;;;;;4.00;1.55;;;;;;;20.35;41.30;101592.13;4959044;28;20499;-61
2021/10/25 10:39:27;;;;;;;1.27;1.13;;;;;;;20.37;41.20;101594.66;4959452;28;20119;-60
2021/10/25 10:41:56;;;;;;;6.38;1.48;;;;;;;20.41;41.35;101594.13;4959209;28;20031;-60
2021/10/25 10:44:26;;;;;;;2.22;1.33;;;;;;;20.44;41.14;101587.47;4958908;28;20023;-60
2021/10/25 10:46:55;;;;;;;3.33;1.30;;;;;;;20.48;41.26;101591.56;4958764;28;20476;-60
2021/10/25 10:49:36;;;;;;;5.80;2.47;;;;;;;20.49;40.76;101588.66;4957760;29;20078;-60
2021/10/25 10:52:37;;;;;;;2.42;1.42;;;;;;;20.55;40.86;101587.09;4959023;28;20050;-60
2021/10/25 10:55:18;;;;;;;2.30;1.52;;;;;;;20.63;40.66;101592.56;4959158;29;20027;-60
2021/10/25 11:00:52;;;;;;;2.35;1.40;;;;;;;20.74;40.58;101589.44;4959024;29;20028;-60
2021/10/25 11:03:24;;;;;;;5.22;1.50;;;;;;;20.84;40.44;101592.78;4957701;29;20075;-60
2021/10/25 11:05:55;;;;;;;3.15;1.80;;;;;;;20.86;40.46;101585.28;4941767;29;20506;-60
2021/10/25 11:08:24;;;;;;;3.92;1.65;;;;;;;20.82;40.91;101589.41;4941708;29;20027;-60
2021/10/25 11:11:00;;;;;;;4.15;1.10;;;;;;;20.83;40.89;101585.63;4958483;29;20059;-60
2021/10/25 11:13:29;;;;;;;3.83;1.35;;;;;;;20.82;41.13;101583.97;4941459;29;20110;-59
2021/10/25 11:16:00;;;;;;;1.80;1.70;;;;;;;20.86;41.28;101588.00;4941425;29;20031;-59
2021/10/25 11:18:31;;;;;;;1.92;1.38;;;;;;;20.84;40.38;101573.72;4958563;29;20023;-59
2021/10/25 11:21:14;;;;;;;6.60;1.70;;;;;;;20.85;40.69;101583.59;4941202;29;20038;-59
2021/10/25 11:23:43;;;;;;;3.97;1.58;;;;;;;20.83;40.60;101577.47;4958358;29;20034;-59
2021/10/25 11:37:20;;;;;;;4.43;1.40;;;;;;;20.96;40.74;101566.00;4730883;28;20121;-58
2021/10/25 11:39:49;;;;;;;2.08;1.10;;;;;;;21.18;40.71;101566.09;4977604;28;20031;-59
2021/10/25 11:42:33;;;;;;;3.63;1.45;;;;;;;21.88;39.35;101555.00;4977229;28;20502;-59
2021/10/25 11:45:03;;;;;;;;;;;;;;;21.90;39.89;101561.09;4977496;28;20039;-60
2021/10/25 11:47:29;;;;;;;3.08;1.27;;;;;;;21.92;40.40;101561.75;4976987;28;19961;-60
2021/10/25 11:50:03;;;;;;;3.33;1.48;;;;;;;22.56;39.72;101550.13;4976912;28;20026;-60
2021/10/25 11:53:04;;;;;;;1.88;1.20;;;;;;;22.78;38.67;101558.44;4959417;28;20027;-60
2021/10/25 11:55:35;;;;;;;2.78;1.00;;;;;;;22.81;38.52;101553.44;4951387;28;20105;-60
2021/10/25 11:58:04;;;;;;;3.85;1.60;;;;;;;22.84;38.65;101547.56;4976782;28;20030;-60
2021/10/25 12:00:34;;;;;;;3.47;1.48;;;;;;;22.75;39.04;101550.63;4976906;28;20023;-60
2021/10/25 12:03:14;;;;;;;8.25;1.90;;;;;;;22.59;39.78;101549.75;4976815;28;20027;-60
2021/10/25 12:05:40;;;;;;;1.52;1.13;;;;;;;22.56;38.97;101544.66;4959408;28;20035;-60
2021/10/25 12:08:10;;;;;;;2.75;1.08;;;;;;;22.49;38.97;101548.34;4976859;28;20110;-60
2021/10/25 12:10:37;;;;;;;7.38;1.52;;;;;;;22.37;40.03;101544.41;4976622;28;20444;-60
2021/10/25 12:13:05;;;;;;;5.93;1.50;;;;;;;22.33;39.82;101543.94;4976508;28;20101;-59
2021/10/25 12:15:33;;;;;;;3.00;1.23;;;;;;;22.28;39.99;101535.44;4976432;28;20070;-60
2021/10/25 12:18:01;;;;;;;3.22;1.20;;;;;;;22.25;39.88;101533.09;4976224;28;20030;-60
2021/10/25 12:20:37;;;;;;;5.10;1.60;;;;;;;22.30;39.51;101527.94;4959011;28;20046;-61
2021/10/25 12:23:07;;;;;;;1.52;1.02;;;;;;;22.32;39.36;101531.31;4976140;28;20526;-61
2021/10/25 12:25:33;;;;;;;3.35;1.40;;;;;;;22.32;39.91;101530.47;4958800;28;20065;-60
2021/10/25 12:28:20;;;;;;;3.60;1.45;;;;;;;22.38;39.00;101525.09;4958992;28;20467;-60
2021/10/25 12:30:51;;;;;;;1.67;1.10;;;;;;;22.41;39.71;101526.63;4960373;28;20035;-60
2021/10/25 12:33:23;;;;;;;4.63;1.27;;;;;;;22.46;39.51;101519.53;4966352;28;20039;-61
2021/10/25 12:35:49;;;;;;;4.13;1.42;;;;;;;22.58;39.12;101526.19;4956548;29;20427;-60
2021/10/25 12:38:16;;;;;;;2.10;1.17;;;;;;;22.62;38.58;101521.22;4946359;29;20051;-60
2021/10/25 12:40:45;;;;;;;2.80;1.00;;;;;;;22.66;38.87;101527.19;4955479;29;20098;-61
2021/10/25 12:43:11;;;;;;;4.63;1.60;;;;;;;22.70;39.35;101517.56;4956627;28;20054;-60
2021/10/25 12:45:41;;;;;;;2.70;2.03;;;;;;;22.76;38.63;101516.78;4956518;28;20441;-61
2021/10/25 12:48:09;;;;;;;4.25;1.80;;;;;;;22.89;38.87;101508.78;4955509;28;20023;-60
2021/10/25 12:50:36;;;;;;;1.88;0.98;;;;;;;23.00;38.62;101514.53;4956441;28;20030;-60
2021/10/25 12:53:06;;;;;;;3.65;1.45;;;;;;;23.01;39.37;101515.41;4956242;28;20019;-60
2021/10/25 12:55:32;;;;;;;2.50;1.40;;;;;;;22.98;38.41;101521.25;4956411;28;20047;-60
2021/10/25 12:57:57;;;;;;;2.70;1.42;;;;;;;22.91;39.24;101515.72;4956571;28;20066;-60
2021/10/25 13:00:24;;;;;;;2.05;1.42;;;;;;;22.83;39.53;101512.25;4956116;28;20035;-60
2021/10/25 13:02:55;;;;;;;3.38;1.63;;;;;;;22.76;39.61;101506.72;4956253;28;20078;-60
2021/10/25 13:05:25;;;;;;;5.47;1.85;;;;;;;22.69;39.42;101510.41;4956208;28;20039;-60
2021/10/25 13:07:55;;;;;;;4.47;1.20;;;;;;;22.60;39.21;101501.44;4956318;28;20077;-60
2021/10/25 13:10:33;;;;;;;3.30;1.42;;;;;;;22.56;38.60;101505.59;4956076;28;20539;-60
2021/10/25 13:13:00;;;;;;;1.52;1.15;;;;;;;22.50;39.48;101511.84;4956053;28;20027;-60
2021/10/25 13:15:26;;;;;;;4.50;1.10;;;;;;;22.42;39.65;101507.28;4955036;29;20023;-60
2021/10/25 13:17:56;;;;;;;4.50;1.33;;;;;;;22.35;39.37;101508.25;4955913;28;20042;-60
2021/10/25 13:20:28;;;;;;;5.75;1.58;;;;;;;22.30;39.83;101506.09;4955884;28;20182;-60
2021/10/25 13:22:55;;;;;;;4.90;1.38;;;;;;;22.27;39.06;101495.56;4954548;29;20035;-61
2021/10/25 13:25:22;;;;;;;3.10;1.52;;;;;;;22.26;39.82;101493.84;4955798;28;20130;-60
2021/10/25 13:27:49;;;;;;;2.17;1.20;;;;;;;22.23;39.64;101499.69;4954641;29;20023;-61